KDRT/DRT METAR and TAF weather

Enter ICAO airport designator
Station Type Date Time Source
KDRT METAR 2021/03/06 01:53 UTC NOAA

KDRT 060153Z AUTO 32009KT 10SM CLR 22/04 A3009 RMK AO2 SLP179 T02170044


Station Type Date Time Source
KDRT Decoded METAR 2021/03/06 01:53 UTC NOAA

DEL RIO INTERNATIONAL AIRPORT, TX, United States (KDRT) 29-22N 100-55W 313M
Mar 05, 2021 - 08:53 PM EST / 2021.03.06 0153 UTC
Wind: from the NW (320 degrees) at 10 MPH (9 KT):0
Visibility: 10 mile(s):0
Sky conditions: clear
Temperature: 71.1 F (21.7 C)
Dew Point: 39.9 F (4.4 C)
Relative Humidity: 32%
Pressure (altimeter): 30.09 in. Hg (1018 hPa)
ob: KDRT 060153Z AUTO 32009KT 10SM CLR 22/04 A3009 RMK AO2 SLP179 T02170044
cycle: 2

Station Type Date Time Source
KDRT TAF 2021/03/06 01:03 UTC NOAA

TAF
AMD KDRT 060101Z 0601/0624 33015G25KT 6SM BLDU BKN040
FM060300 33011KT P6SM FEW250
FM061300 33008KT P6SM BKN025
FM061800 34005KT P6SM SCT030

Example: see airport list